CDT,Max TemperatureF,Mean TemperatureF,Min TemperatureF,Max Dew PointF,MeanDew PointF,Min DewpointF,Max Humidity, Mean Humidity, Min Humidity, Max Sea Level PressureIn, Mean Sea Level PressureIn, Min Sea Level PressureIn, Max VisibilityMiles, Mean VisibilityMiles, Min VisibilityMiles, Max Wind SpeedMPH, Mean Wind SpeedMPH, Max Gust SpeedMPH,PrecipitationIn, CloudCover, Events, WindDirDegrees
2014-3-1,78,64,51,60,55,45,93,74,48,30.15,30.09,30.03,10,10,8,14,7,16,0.00,5,,163
2014-3-2,75,68,60,63,61,57,93,81,62,30.15,30.04,29.93,10,10,8,17,10,24,0.00,7,,167
2014-3-3,66,46,27,63,35,21,96,85,70,30.25,30.12,29.91,10,9,2,23,14,30,0.20,8,Rain-Thunderstorm,339
2014-3-4,33,30,27,32,28,22,96,88,78,30.22,30.17,30.09,10,5,2,12,6,,0.43,8,Rain,21
2014-3-5,54,44,33,47,40,32,97,90,75,30.13,30.06,29.99,10,5,0,8,4,,0.01,8,Fog-Rain,29
2014-3-6,48,44,41,47,43,39,97,94,90,30.06,30.01,29.96,10,5,2,14,8,,0.17,8,Rain,342
2014-3-7,60,50,41,47,42,39,96,83,53,30.12,30.06,30.00,10,6,1,8,5,,0.00,5,,358
2014-3-8,68,54,41,53,46,40,97,80,47,30.18,30.13,30.05,10,7,1,10,1,,0.00,3,,170
2014-3-9,71,60,50,54,51,49,97,72,45,30.24,30.18,30.12,10,10,6,7,2,,0.00,2,,324
2014-3-10,77,62,46,56,51,45,93,72,43,30.16,30.07,29.95,10,8,2,12,3,16,0.00,0,,304
2014-3-11,66,60,55,64,60,52,100,94,78,29.93,29.77,29.69,10,4,0,12,4,,0.09,7,Fog-Rain,145
2014-3-12,64,56,46,61,50,29,96,75,37,30.17,29.86,29.71,10,9,2,26,9,33,0.00,5,,297
2014-3-13,66,48,32,36,29,24,89,54,22,30.32,30.23,30.18,10,10,9,9,2,,0.00,0,,344
2014-3-14,69,52,36,50,41,34,93,66,38,30.25,30.17,30.10,10,10,5,15,4,25,0.00,2,,173
2014-3-15,70,60,51,60,55,49,93,81,61,30.11,29.98,29.80,10,9,7,8,4,,0.00,7,,117
2014-3-16,77,64,50,65,60,42,97,84,44,29.80,29.70,29.60,10,8,1,23,9,32,1.12,7,Rain-Thunderstorm,260
2014-3-17,48,44,39,40,35,33,82,78,71,29.90,29.83,29.78,10,10,10,20,13,26,0.00,8,,331
2014-3-18,68,52,37,46,39,34,90,71,39,29.98,29.91,29.84,10,10,9,17,4,22,0.00,4,,173
2014-3-19,73,60,46,56,52,45,100,82,52,30.10,30.05,29.96,10,6,0,12,7,17,0.00,6,Fog,215
2014-3-20,73,62,48,52,40,33,80,51,23,30.18,30.11,30.06,10,10,10,9,5,,0.00,2,,14
2014-3-21,78,60,42,51,45,39,89,61,28,30.09,30.04,29.97,10,10,7,15,4,22,0.00,0,,175
2014-3-22,81,66,55,62,56,52,89,69,46,30.07,30.01,29.96,10,9,4,8,2,,0.00,4,,181
2014-3-23,66,58,50,62,54,42,93,84,67,30.19,30.08,29.96,10,8,1,21,6,33,0.48,6,Rain-Thunderstorm,342
2014-3-24,66,56,46,46,40,37,83,60,34,30.18,30.09,29.98,10,10,10,14,6,,0.00,4,,13
2014-3-25,62,51,41,37,27,20,73,42,21,30.28,30.19,30.08,10,10,10,23,9,31,0.00,0,,350
2014-3-26,59,44,32,34,27,23,85,50,30,30.38,30.27,30.19,10,10,10,12,4,17,0.00,1,,140
2014-3-27,69,58,48,62,53,36,97,76,61,30.15,30.04,29.94,10,10,4,21,11,32,0.07,7,Rain-Thunderstorm,152
2014-3-28,72,66,59,66,62,57,100,92,81,30.01,29.91,29.84,10,7,0,23,11,41,2.97,8,Fog-Rain-Thunderstorm,150
2014-3-29,70,62,52,58,53,40,100,82,35,30.22,30.01,29.88,10,7,1,22,6,33,0.18,6,Rain-Thunderstorm,308
2014-3-30,72,56,42,44,39,33,92,62,25,30.28,30.21,30.14,10,10,8,9,2,,0.00,0,,6
2014-3-31,77,57,39,53,43,31,93,62,19,30.15,30.10,30.04,10,9,5,18,4,24,0.00,0,,162